Time;durP1;ratioP1;P1;durP2;ratioP2;P2;SDS_P1;SDS_P2;PMS_P1;PMS_P2;Temp;Humidity;BMP_temperature;BMP_pressure;BME280_temperature;BME280_humidity;BME280_pressure;Samples;Min_cycle;Max_cycle;Signal;HPM_P1;HPM_P2
2023/04/09 12:41:53;;;;;;;14.18;12.57;;;;;;;15.78;54.00;102148.84;5140521;27;20931;-75
2023/04/09 12:44:18;;;;;;;15.18;13.00;;;;;;;15.72;56.06;102150.56;5130520;27;20023;-75
2023/04/09 12:46:43;;;;;;;15.15;12.93;;;;;;;15.86;55.46;102147.72;5132239;27;20023;-77
2023/04/09 12:49:09;;;;;;;16.08;13.23;;;;;;;15.87;56.78;102152.13;5132383;27;20026;-74
2023/04/09 12:51:34;;;;;;;15.63;13.00;;;;;;;15.90;54.92;102146.19;5133707;27;20027;-75
2023/04/09 12:54:02;;;;;;;13.57;12.18;;;;;;;15.75;53.96;102143.81;5137418;27;20023;-78
2023/04/09 12:56:28;;;;;;;13.85;12.00;;;;;;;15.59;54.94;102145.25;5108751;27;20050;-72
2023/04/09 12:58:53;;;;;;;14.20;11.63;;;;;;;15.35;54.22;102141.53;5129158;27;20023;-75
2023/04/09 13:01:18;;;;;;;14.32;12.15;;;;;;;15.12;51.93;102139.44;5125283;27;20106;-72
2023/04/09 13:03:47;;;;;;;14.68;12.65;;;;;;;15.12;54.45;102144.91;5124727;28;20080;-74
2023/04/09 13:06:12;;;;;;;15.90;11.98;;;;;;;15.30;56.64;102141.38;5120827;28;20462;-75
2023/04/09 13:08:37;;;;;;;12.60;11.30;;;;;;;15.40;53.64;102141.69;5103486;28;20463;-73
2023/04/09 13:11:03;;;;;;;13.30;11.82;;;;;;;15.53;54.49;102137.97;5126075;28;20027;-74
2023/04/09 13:13:28;;;;;;;12.35;11.05;;;;;;;15.51;55.23;102143.66;5111196;28;20024;-72
2023/04/09 13:15:53;;;;;;;13.52;11.45;;;;;;;15.44;53.93;102140.16;5129962;28;20027;-75
2023/04/09 13:18:19;;;;;;;12.75;11.27;;;;;;;15.25;53.05;102139.31;5129914;27;20344;-73
2023/04/09 13:20:44;;;;;;;12.50;11.23;;;;;;;15.27;52.87;102141.81;5125649;28;20473;-73
2023/04/09 13:23:17;;;;;;;11.98;10.10;;;;;;;15.21;51.50;102132.66;5130860;27;20027;-80
2023/04/09 13:25:43;;;;;;;12.43;10.55;;;;;;;15.20;52.08;102136.41;5111933;28;20019;-73
2023/04/09 13:28:11;;;;;;;14.77;11.90;;;;;;;15.12;54.87;102131.25;5111203;28;20046;-76
2023/04/09 13:30:42;;;;;;;14.25;11.10;;;;;;;15.02;56.46;102146.25;5110782;28;20057;-75
2023/04/09 13:33:08;;;;;;;16.50;11.82;;;;;;;14.98;55.40;102145.00;5110377;28;20019;-75
2023/04/09 13:35:33;;;;;;;13.18;11.38;;;;;;;14.93;52.20;102142.13;5118864;27;20088;-74
2023/04/09 13:38:05;;;;;;;14.07;11.70;;;;;;;14.86;53.56;102142.16;5125976;27;20042;-78
2023/04/09 13:40:59;;;;;;;12.77;11.48;;;;;;;14.94;55.46;102132.88;5103440;28;20140;-76
2023/04/09 13:43:26;;;;;;;14.02;12.10;;;;;;;14.90;55.56;102120.78;5097368;28;20060;-75
2023/04/09 13:45:56;;;;;;;13.05;11.70;;;;;;;14.94;54.40;102116.53;5102820;28;20047;-74
2023/04/09 13:48:58;;;;;;;13.23;11.57;;;;;;;14.96;53.42;102113.56;5102951;27;20031;-76
2023/04/09 13:51:32;;;;;;;14.10;12.30;;;;;;;15.13;54.36;102120.13;5117500;27;20019;-74
2023/04/09 13:53:58;;;;;;;14.40;11.10;;;;;;;15.36;53.65;102121.38;5087288;28;20147;-78
2023/04/09 13:56:32;;;;;;;12.73;11.50;;;;;;;15.69;52.08;102112.81;5108272;27;20373;-76
2023/04/09 13:58:57;;;;;;;13.00;11.00;;;;;;;16.12;54.10;102105.56;5086870;28;20023;-72
2023/04/09 14:01:25;;;;;;;11.98;10.73;;;;;;;16.19;52.08;102113.69;5120079;27;20371;-70
2023/04/09 14:04:09;;;;;;;13.20;11.00;;;;;;;16.31;52.63;102114.56;5105943;27;20030;-79
2023/04/09 14:06:57;;;;;;;13.27;10.70;;;;;;;16.11;52.42;102107.47;5088276;28;20020;-75
2023/04/09 14:09:26;;;;;;;13.35;10.68;;;;;;;15.96;51.33;102101.59;5092069;28;20024;-75
2023/04/09 14:11:56;;;;;;;12.27;10.98;;;;;;;15.80;50.51;102103.06;5114838;27;20031;-74
2023/04/09 14:14:21;;;;;;;12.98;10.80;;;;;;;15.69;51.96;102101.91;5096076;28;20045;-74
2023/04/09 14:16:47;;;;;;;11.30;10.18;;;;;;;15.69;53.65;102096.44;5108494;28;20454;-75
2023/04/09 14:19:12;;;;;;;11.57;10.32;;;;;;;15.59;50.75;102097.00;5090208;28;20027;-75
2023/04/09 14:21:38;;;;;;;11.65;10.35;;;;;;;15.53;51.50;102091.59;5086389;28;20447;-74
2023/04/09 14:24:04;;;;;;;16.50;10.68;;;;;;;15.48;53.16;102094.19;5089754;28;20035;-72
2023/04/09 14:26:33;;;;;;;11.55;10.02;;;;;;;15.37;52.03;102091.16;5083387;28;20020;-72
2023/04/09 14:28:58;;;;;;;13.55;10.32;;;;;;;15.39;53.30;102083.56;5104001;28;20069;-73
2023/04/09 14:31:23;;;;;;;11.23;10.02;;;;;;;15.34;54.11;102086.16;5109174;28;20123;-74
2023/04/09 14:33:51;;;;;;;11.90;10.20;;;;;;;15.42;51.25;102083.09;5105540;28;20028;-74
2023/04/09 14:36:16;;;;;;;10.90;9.68;;;;;;;15.41;52.28;102077.88;5085332;28;20028;-71
2023/04/09 14:38:42;;;;;;;11.75;9.80;;;;;;;15.39;53.58;102078.09;5105796;28;20035;-70
2023/04/09 14:41:07;;;;;;;13.52;9.63;;;;;;;15.28;51.15;102084.34;5087885;28;20484;-71
2023/04/09 14:43:33;;;;;;;11.90;9.60;;;;;;;15.33;53.88;102081.75;5084095;28;20028;-73
2023/04/09 14:45:58;;;;;;;11.82;9.73;;;;;;;15.25;51.24;102095.69;5106513;28;20046;-73
2023/04/09 14:48:23;;;;;;;11.30;9.73;;;;;;;15.27;53.21;102092.75;5107964;28;20527;-73
2023/04/09 14:50:55;;;;;;;11.43;9.40;;;;;;;15.25;53.84;102084.78;5107133;28;20023;-74
2023/04/09 14:53:20;;;;;;;11.43;9.82;;;;;;;15.30;54.50;102081.38;5107710;28;20046;-74
2023/04/09 14:55:45;;;;;;;11.57;9.85;;;;;;;15.63;51.44;102077.44;5107770;28;20351;-73
2023/04/09 14:58:10;;;;;;;11.75;9.35;;;;;;;16.32;52.75;102072.53;5098121;28;20398;-73
2023/04/09 15:00:37;;;;;;;10.70;9.60;;;;;;;16.36;50.14;102062.78;5105767;28;20720;-74
2023/04/09 15:03:03;;;;;;;12.30;9.75;;;;;;;16.24;50.00;102061.91;5110869;28;20027;-71
2023/04/09 15:05:32;;;;;;;11.93;8.98;;;;;;;16.07;49.72;102048.09;5114305;28;20046;-74
2023/04/09 15:07:58;;;;;;;18.38;9.18;;;;;;;16.00;52.06;102055.53;5095794;28;20466;-73
2023/04/09 15:10:23;;;;;;;11.15;9.55;;;;;;;15.77;51.33;102055.22;5112763;28;20027;-74
2023/04/09 15:12:49;;;;;;;10.00;8.55;;;;;;;15.68;50.88;102050.28;5113291;28;20023;-73
2023/04/09 15:15:15;;;;;;;9.52;8.52;;;;;;;15.58;51.26;102039.94;5112239;28;20430;-75
2023/04/09 15:17:40;;;;;;;10.32;9.27;;;;;;;15.52;48.93;102038.09;5114166;28;20102;-76
2023/04/09 15:20:29;;;;;;;10.75;9.63;;;;;;;15.75;49.67;102035.47;5095911;28;20122;-77
2023/04/09 15:23:04;;;;;;;10.43;9.32;;;;;;;16.31;50.51;102021.69;5093354;28;20035;-76
2023/04/09 15:25:38;;;;;;;10.65;9.23;;;;;;;17.04;48.74;102014.09;5113734;28;20022;-75
2023/04/09 15:28:04;;;;;;;9.80;8.80;;;;;;;17.40;47.44;102020.34;5113880;28;20035;-70
2023/04/09 15:30:30;;;;;;;9.20;8.23;;;;;;;17.56;46.55;102010.53;5113691;28;20028;-75
2023/04/09 15:32:56;;;;;;;9.25;8.35;;;;;;;17.80;45.45;102011.28;5111956;28;20103;-79
2023/04/09 15:35:27;;;;;;;9.82;8.05;;;;;;;17.96;45.39;102006.09;5111500;28;20061;-74
2023/04/09 15:37:54;;;;;;;11.70;8.30;;;;;;;17.84;44.26;102009.69;5114720;28;20020;-73
2023/04/09 15:40:19;;;;;;;9.50;8.20;;;;;;;17.59;44.93;102014.69;5109643;28;20046;-72
2023/04/09 15:42:44;;;;;;;9.68;8.48;;;;;;;17.29;45.92;102015.75;5112363;28;20024;-73
2023/04/09 15:45:10;;;;;;;9.20;8.18;;;;;;;16.99;45.24;102019.47;5114404;28;20055;-73
2023/04/09 15:47:39;;;;;;;9.00;8.07;;;;;;;17.20;46.74;102018.00;5111687;28;20030;-74
2023/04/09 15:50:11;;;;;;;10.35;8.68;;;;;;;17.57;46.88;102020.41;5095410;28;20110;-74
2023/04/09 15:52:43;;;;;;;8.45;7.57;;;;;;;18.09;44.95;102019.50;5113592;28;20024;-78
2023/04/09 15:56:24;;;;;;;9.43;7.35;;;;;;;18.40;48.31;102009.88;5090703;28;20084;-77
2023/04/09 15:59:07;;;;;;;9.53;7.90;;;;;;;18.75;45.98;102021.63;5032979;28;20028;-77
2023/04/09 16:02:10;;;;;;;9.10;8.07;;;;;;;19.07;47.49;102015.53;5047731;28;20075;-76
2023/04/09 16:04:45;;;;;;;7.15;6.43;;;;;;;19.03;43.55;102014.38;4959214;28;20621;-77
2023/04/09 16:07:52;;;;;;;7.88;7.07;;;;;;;18.68;43.71;101999.06;5027513;28;20025;-75
2023/04/09 16:10:26;;;;;;;11.55;8.75;;;;;;;17.93;44.70;102006.59;5016408;28;20029;-76
2023/04/09 16:12:57;;;;;;;8.93;8.02;;;;;;;17.45;44.32;102011.41;5030822;28;20111;-75
2023/04/09 16:16:01;;;;;;;;;;;;;;;;;;;;;
2023/04/09 16:18:59;;;;;;;10.30;8.27;;;;;;;16.83;45.77;102016.38;5035385;28;20238;-75
2023/04/09 16:21:27;;;;;;;7.80;7.00;;;;;;;16.66;46.70;102008.03;5033914;28;20124;-77
2023/04/09 16:23:53;;;;;;;10.52;6.97;;;;;;;16.59;46.25;102009.22;5087706;28;20100;-74
2023/04/09 16:26:23;;;;;;;9.10;7.00;;;;;;;16.48;48.39;102008.16;5093309;28;20024;-78
2023/04/09 16:28:51;;;;;;;7.18;6.47;;;;;;;16.56;47.62;102004.22;5093245;28;20099;-74
2023/04/09 16:31:17;;;;;;;10.35;7.68;;;;;;;16.63;46.47;101994.03;5095141;28;20012;-73
2023/04/09 16:33:42;;;;;;;9.15;8.00;;;;;;;16.50;47.21;101992.38;5113504;28;20459;-76
2023/04/09 16:36:08;;;;;;;9.07;8.18;;;;;;;16.48;47.11;102000.78;5113115;28;20023;-75
2023/04/09 16:38:33;;;;;;;8.77;7.43;;;;;;;16.50;48.42;101999.72;5096739;28;20027;-73
2023/04/09 16:40:59;;;;;;;8.93;7.32;;;;;;;16.44;48.49;101999.59;5087546;28;20419;-76
2023/04/09 16:43:48;;;;;;;8.38;7.18;;;;;;;16.45;48.83;101994.97;5092811;28;20217;-77
2023/04/09 16:46:17;;;;;;;7.80;7.00;;;;;;;16.36;48.55;101997.22;5091451;28;20108;-76
2023/04/09 16:49:44;;;;;;;7.75;6.90;;;;;;;16.33;48.31;101992.22;5093005;28;20089;-76
2023/04/09 16:56:51;;;;;;;;;;;;;;;;;;;;;
2023/04/09 17:03:09;;;;;;;7.80;7.00;;;;;;;15.70;47.43;102002.59;4894955;29;20070;-77
2023/04/09 17:05:34;;;;;;;6.85;6.18;;;;;;;15.63;48.91;101998.31;5010925;28;20034;-74
2023/04/09 17:08:00;;;;;;;6.78;6.07;;;;;;;15.48;47.57;101990.53;5028424;28;20458;-78
2023/04/09 17:10:28;;;;;;;7.10;6.05;;;;;;;15.40;48.16;101987.03;5029934;28;20032;-74
2023/04/09 17:12:59;;;;;;;7.57;6.22;;;;;;;15.37;49.37;101982.06;5033005;28;20033;-77
2023/04/09 17:15:25;;;;;;;8.05;6.70;;;;;;;15.25;47.55;101975.72;5029733;28;20029;-76
2023/04/09 17:18:15;;;;;;;18.05;14.07;;;;;;;15.29;48.56;101982.34;5039274;28;20028;-83
2023/04/09 17:21:11;;;;;;;;;;;;;;;;;;;;;
2023/04/09 17:27:15;;;;;;;17.23;12.75;;;;;;;14.98;48.94;101986.91;5110085;28;20050;-84
2023/04/09 17:29:41;;;;;;;9.93;6.55;;;;;;;14.88;46.90;101986.59;5098128;28;20556;-79
2023/04/09 17:32:09;;;;;;;9.00;6.70;;;;;;;14.69;49.91;101980.31;5116459;28;20102;-77
2023/04/09 17:35:02;;;;;;;9.10;7.30;;;;;;;14.80;49.04;101984.19;5097362;28;20022;-81
2023/04/09 17:37:28;;;;;;;8.00;7.00;;;;;;;14.61;47.89;101992.31;5091374;28;20028;-79
2023/04/09 17:39:57;;;;;;;8.25;6.60;;;;;;;14.53;50.34;101992.59;5096364;28;20047;-79
2023/04/09 17:42:41;;;;;;;8.10;6.97;;;;;;;14.54;51.92;101996.97;5096705;28;20031;-85
2023/04/09 17:45:07;;;;;;;13.00;11.10;;;;;;;14.47;50.34;101988.84;5113153;28;20023;-75
2023/04/09 17:47:55;;;;;;;17.65;13.07;;;;;;;14.41;50.57;101995.19;5096361;28;20429;-76
2023/04/09 17:51:10;;;;;;;13.98;10.55;;;;;;;14.36;52.33;101984.16;5096712;28;20028;-76
2023/04/09 17:54:33;;;;;;;;;;;;;;;;;;;;;
2023/04/09 17:57:03;;;;;;;10.77;9.75;;;;;;;14.27;53.57;101999.91;5025320;28;20083;-77
2023/04/09 17:59:29;;;;;;;11.82;9.85;;;;;;;14.18;51.87;101991.19;5092028;28;20031;-75
2023/04/09 18:01:55;;;;;;;9.68;8.38;;;;;;;14.11;52.87;101992.28;5095140;28;20020;-76
2023/04/09 18:04:29;;;;;;;9.27;8.05;;;;;;;14.08;55.39;101990.00;5097230;28;20487;-80
2023/04/09 18:06:57;;;;;;;8.30;7.00;;;;;;;13.99;51.63;101987.56;5113716;28;20062;-75
2023/04/09 18:09:22;;;;;;;8.15;6.60;;;;;;;14.01;52.97;101987.34;5097531;28;20389;-77
2023/04/09 18:12:07;;;;;;;;;;;;;;;;;;;;;
2023/04/09 18:14:33;;;;;;;7.75;6.95;;;;;;;13.85;55.75;101982.44;5102048;28;20031;-77
2023/04/09 18:17:26;;;;;;;7.47;6.75;;;;;;;13.86;54.96;101993.09;5096081;28;20020;-78
2023/04/09 18:20:25;;;;;;;8.80;7.20;;;;;;;13.81;56.51;101987.47;5073999;28;20429;-78
2023/04/09 18:22:54;;;;;;;8.30;7.00;;;;;;;13.62;55.44;101989.25;5077464;28;20411;-76
2023/04/09 18:25:22;;;;;;;8.38;7.30;;;;;;;13.54;57.44;101982.19;5096416;28;20369;-78
2023/04/09 18:27:47;;;;;;;9.63;7.47;;;;;;;13.48;58.28;101988.47;5095653;28;20027;-80
2023/04/09 18:30:28;;;;;;;9.38;7.80;;;;;;;13.45;57.37;101986.19;5115348;28;20484;-80
2023/04/09 18:33:34;;;;;;;8.63;7.72;;;;;;;13.32;59.03;101986.25;5096737;28;20032;-82
2023/04/09 18:36:03;;;;;;;9.55;7.45;;;;;;;13.26;59.33;101986.03;5053447;28;20032;-77
2023/04/09 18:38:34;;;;;;;8.30;7.45;;;;;;;13.24;59.35;101992.72;5093363;28;20015;-77
2023/04/09 18:41:00;;;;;;;9.70;6.80;;;;;;;13.19;59.04;101989.81;5092655;28;20475;-76
2023/04/09 18:43:26;;;;;;;10.82;7.50;;;;;;;13.09;60.59;101993.84;5092503;28;20031;-77
2023/04/09 18:45:58;;;;;;;8.77;6.78;;;;;;;13.07;57.77;101987.78;5091057;28;20485;-77
2023/04/09 18:48:24;;;;;;;8.25;7.10;;;;;;;12.90;58.25;101995.53;5092595;28;20024;-78
2023/04/09 18:50:50;;;;;;;8.60;7.40;;;;;;;12.88;60.66;102003.09;5092354;28;20008;-77
2023/04/09 18:53:15;;;;;;;9.48;7.70;;;;;;;12.82;62.17;101992.22;5092294;28;20018;-77
2023/04/09 18:55:41;;;;;;;10.50;7.82;;;;;;;12.81;61.52;101991.38;5089330;28;20062;-77
2023/04/09 18:58:14;;;;;;;8.65;7.70;;;;;;;12.76;61.95;102002.06;5091576;28;20026;-76
2023/04/09 19:00:49;;;;;;;8.88;7.97;;;;;;;12.71;62.69;101999.13;5089148;28;20688;-78
2023/04/09 19:03:18;;;;;;;10.23;8.90;;;;;;;12.61;63.55;102001.47;5093372;28;20069;-78
2023/04/09 19:05:47;;;;;;;11.30;9.70;;;;;;;12.59;63.70;101998.94;5091971;28;20028;-76
2023/04/09 19:08:12;;;;;;;12.00;9.80;;;;;;;12.51;64.46;101999.16;5092701;28;20036;-76
2023/04/09 19:10:38;;;;;;;11.75;9.52;;;;;;;12.46;64.45;101999.78;5093001;28;20032;-75
2023/04/09 19:13:04;;;;;;;14.35;9.90;;;;;;;12.40;65.21;102014.19;5092611;28;20020;-77
2023/04/09 19:15:30;;;;;;;13.27;9.77;;;;;;;12.27;65.76;102004.16;5091761;28;20073;-78
2023/04/09 19:17:58;;;;;;;13.80;9.93;;;;;;;12.27;66.01;102006.06;5094448;28;20359;-75
2023/04/09 19:20:23;;;;;;;14.57;10.48;;;;;;;12.19;66.83;101997.06;5092493;28;20024;-75
2023/04/09 19:22:53;;;;;;;16.67;11.15;;;;;;;12.12;69.90;102003.53;5092354;28;20081;-77
2023/04/09 19:28:38;;;;;;;17.42;11.82;;;;;;;11.96;70.42;101986.63;5093372;28;20036;-77
2023/04/09 19:31:05;;;;;;;18.33;13.15;;;;;;;11.94;70.87;101987.84;5090939;28;20540;-76
2023/04/09 19:33:33;;;;;;;17.25;13.55;;;;;;;11.94;69.95;101979.72;5093925;28;20085;-76
2023/04/09 19:36:06;;;;;;;20.80;14.60;;;;;;;11.91;69.96;101982.81;5092319;28;20106;-77
2023/04/09 19:38:35;;;;;;;22.27;17.05;;;;;;;11.76;66.08;101981.13;5091701;28;20028;-78
2023/04/09 19:41:00;;;;;;;24.42;17.70;;;;;;;11.84;68.75;101978.22;5106569;28;20417;-75
2023/04/09 19:43:26;;;;;;;25.08;18.45;;;;;;;11.84;68.82;101980.91;5095145;28;20059;-76
2023/04/09 19:46:03;;;;;;;26.15;18.20;;;;;;;11.78;70.06;101989.06;5092782;28;20131;-79
2023/04/09 19:49:14;;;;;;;21.65;15.85;;;;;;;11.80;70.07;101985.06;5109909;27;20132;-79
2023/04/09 19:51:39;;;;;;;19.58;14.85;;;;;;;11.68;71.08;101981.28;4994185;28;20034;-74
2023/04/09 19:54:05;;;;;;;18.60;14.05;;;;;;;11.61;67.72;101978.59;5083625;27;20114;-73
2023/04/09 19:56:31;;;;;;;15.90;13.15;;;;;;;11.67;70.02;101993.19;5108613;28;20037;-78
2023/04/09 19:58:56;;;;;;;16.92;13.13;;;;;;;11.63;71.11;101986.50;5090148;28;20030;-75
2023/04/09 20:01:22;;;;;;;15.57;12.88;;;;;;;11.56;70.55;101986.47;5111023;28;20366;-73
2023/04/09 20:04:25;;;;;;;16.23;13.30;;;;;;;11.65;71.71;101984.41;5095780;28;20028;-78
2023/04/09 20:07:07;;;;;;;;;;;;;;;;;;;;;
2023/04/09 20:09:34;;;;;;;14.15;10.95;;;;;;;11.52;69.30;101979.81;5108458;28;20027;-76
2023/04/09 20:12:03;;;;;;;13.57;11.15;;;;;;;11.46;71.62;101983.34;5096195;28;20454;-80
2023/04/09 20:14:30;;;;;;;12.93;11.20;;;;;;;11.48;70.91;101978.53;5094107;28;20351;-77
2023/04/09 20:16:55;;;;;;;13.13;10.57;;;;;;;11.46;70.09;101976.03;5095496;28;20026;-76
2023/04/09 20:19:23;;;;;;;13.38;11.05;;;;;;;11.39;67.16;101972.44;5093658;28;20035;-74
2023/04/09 20:21:53;;;;;;;13.95;11.60;;;;;;;11.39;70.32;101969.75;5090980;28;20035;-77
2023/04/09 20:24:21;;;;;;;12.82;11.38;;;;;;;11.38;70.18;101969.94;5091296;28;20026;-73
2023/04/09 20:26:50;;;;;;;13.63;12.13;;;;;;;11.40;66.76;101966.00;5095405;28;20118;-79
2023/04/09 20:29:15;;;;;;;15.18;12.18;;;;;;;11.40;70.84;101963.28;5095905;28;20016;-76
2023/04/09 20:31:42;;;;;;;14.50;11.95;;;;;;;11.37;69.79;101970.97;5094308;28;20020;-78
2023/04/09 20:34:10;;;;;;;13.88;11.50;;;;;;;11.37;69.74;101965.56;5093707;28;20115;-77
2023/04/09 20:36:36;;;;;;;13.00;11.13;;;;;;;11.33;68.85;101960.53;5094441;28;20114;-75
2023/04/09 20:39:01;;;;;;;12.98;11.27;;;;;;;11.27;68.38;101957.81;5111129;28;20478;-73
2023/04/09 20:41:27;;;;;;;15.18;12.02;;;;;;;11.25;69.70;101958.03;5094432;28;20062;-75
2023/04/09 20:43:54;;;;;;;13.95;11.52;;;;;;;11.33;70.91;101957.00;5093261;28;20062;-75
2023/04/09 20:46:20;;;;;;;16.95;12.93;;;;;;;11.34;67.93;101958.69;5094477;28;20051;-74
2023/04/09 20:48:45;;;;;;;14.65;12.02;;;;;;;11.33;68.03;101951.59;5112437;28;20076;-74
2023/04/09 20:51:37;;;;;;;14.90;11.65;;;;;;;11.34;65.93;101947.84;5094823;28;20016;-79
2023/04/09 20:54:16;;;;;;;12.98;10.60;;;;;;;11.26;67.25;101951.56;5093678;28;20022;-75
2023/04/09 20:57:02;;;;;;;11.10;9.80;;;;;;;11.31;69.93;101950.97;5091313;28;20140;-78
2023/04/09 20:59:27;;;;;;;11.05;9.85;;;;;;;11.33;65.40;101948.88;5091467;28;20020;-77
2023/04/09 21:01:54;;;;;;;11.90;9.40;;;;;;;11.32;66.74;101934.50;5099937;28;20031;-74
2023/04/09 21:04:20;;;;;;;12.55;10.15;;;;;;;11.34;65.70;101932.41;5078078;28;20020;-74
2023/04/09 21:06:46;;;;;;;11.10;9.57;;;;;;;11.31;63.70;101932.00;5095786;28;20478;-74
2023/04/09 21:09:49;;;;;;;10.35;9.25;;;;;;;11.31;65.38;101940.13;5094780;28;20026;-80
2023/04/09 21:12:14;;;;;;;13.70;9.25;;;;;;;11.21;65.26;101935.06;5078236;28;20359;-71
2023/04/09 21:14:39;;;;;;;11.38;8.90;;;;;;;11.24;66.56;101937.38;5095798;28;20024;-77
2023/04/09 21:17:04;;;;;;;11.85;9.23;;;;;;;11.20;64.84;101937.97;5108203;28;20034;-76
2023/04/09 21:19:30;;;;;;;11.77;9.70;;;;;;;11.25;68.15;101940.94;5113801;28;20030;-76
2023/04/09 21:21:55;;;;;;;12.75;9.05;;;;;;;11.22;63.88;101935.91;5113416;28;20521;-73
2023/04/09 21:24:21;;;;;;;10.38;8.82;;;;;;;11.20;64.06;101932.56;5116392;28;20343;-75
2023/04/09 21:26:47;;;;;;;10.98;8.75;;;;;;;11.15;67.97;101933.19;5098253;28;20030;-74
2023/04/09 21:29:14;;;;;;;12.13;8.98;;;;;;;11.10;65.55;101939.19;5116786;28;20114;-74
2023/04/09 21:31:40;;;;;;;10.20;8.45;;;;;;;11.06;71.81;101937.94;5116078;28;20510;-72
2023/04/09 21:34:05;;;;;;;9.15;8.30;;;;;;;11.06;70.51;101937.94;5116225;28;20111;-73
2023/04/09 21:36:35;;;;;;;9.68;8.55;;;;;;;11.09;69.07;101937.53;5115401;28;20079;-79
2023/04/09 21:39:00;;;;;;;10.10;8.73;;;;;;;11.07;71.39;101946.91;5097185;28;20031;-78
2023/04/09 21:41:25;;;;;;;9.30;8.27;;;;;;;10.98;67.45;101946.22;5115741;28;20039;-73
2023/04/09 21:43:51;;;;;;;11.27;8.48;;;;;;;10.98;68.80;101941.63;5095205;28;20366;-75
2023/04/09 21:46:16;;;;;;;11.43;8.70;;;;;;;11.02;70.26;101943.94;5092664;28;20447;-77
2023/04/09 21:48:42;;;;;;;12.55;9.10;;;;;;;10.90;68.70;101944.53;5114464;28;20478;-76
2023/04/09 21:51:09;;;;;;;10.38;8.63;;;;;;;10.80;74.82;101947.59;5115107;28;20057;-75
2023/04/09 21:53:34;;;;;;;9.63;8.30;;;;;;;10.88;74.88;101945.75;5113989;28;20546;-74
2023/04/09 21:56:00;;;;;;;10.40;8.38;;;;;;;10.91;70.11;101948.06;5115754;28;20081;-77
2023/04/09 21:58:25;;;;;;;11.02;9.20;;;;;;;10.91;72.26;101945.34;5114027;28;20435;-78
2023/04/09 22:00:51;;;;;;;10.07;8.05;;;;;;;10.79;68.25;101945.94;5094779;28;20073;-74
2023/04/09 22:03:18;;;;;;;11.82;8.65;;;;;;;10.77;66.43;101949.88;5115182;28;20507;-77
2023/04/09 22:05:44;;;;;;;9.80;8.35;;;;;;;10.76;68.68;101937.34;5096206;28;20028;-75
2023/04/09 22:08:10;;;;;;;9.77;8.77;;;;;;;10.70;70.70;101938.16;5097177;28;20355;-76
2023/04/09 22:10:35;;;;;;;9.48;8.25;;;;;;;10.61;70.85;101938.31;5096525;28;20035;-77
2023/04/09 22:13:01;;;;;;;10.75;8.88;;;;;;;10.66;71.42;101943.16;5096573;28;20127;-74
2023/04/09 22:15:26;;;;;;;11.25;8.60;;;;;;;10.59;68.74;101940.38;5114496;28;20045;-75
2023/04/09 22:17:51;;;;;;;9.90;8.88;;;;;;;10.54;68.88;101936.63;5114413;28;20035;-78
2023/04/09 22:20:23;;;;;;;10.05;8.65;;;;;;;10.55;68.25;101940.97;5114133;28;20023;-78
2023/04/09 22:22:48;;;;;;;11.65;8.98;;;;;;;10.48;69.69;101930.13;5115260;28;20058;-76
2023/04/09 22:25:14;;;;;;;10.18;8.40;;;;;;;10.42;70.85;101936.31;5097052;28;20043;-78
2023/04/09 22:27:40;;;;;;;11.00;8.82;;;;;;;10.52;74.74;101941.38;5093117;28;20106;-77
2023/04/09 22:30:06;;;;;;;14.05;9.27;;;;;;;10.49;75.17;101942.59;5096818;28;20065;-76
2023/04/09 22:32:32;;;;;;;9.10;8.27;;;;;;;10.50;76.27;101938.03;5114979;28;20023;-77
2023/04/09 22:34:59;;;;;;;10.45;8.50;;;;;;;10.38;70.79;101943.97;5114991;28;20409;-74
2023/04/09 22:37:29;;;;;;;11.93;8.88;;;;;;;10.36;71.60;101940.66;5096087;28;20070;-76
2023/04/09 22:39:58;;;;;;;12.80;9.00;;;;;;;10.33;74.05;101941.03;5092594;28;20047;-79
2023/04/09 22:42:27;;;;;;;13.73;9.32;;;;;;;10.39;74.76;101948.38;5090859;28;20363;-78
2023/04/09 22:44:53;;;;;;;10.02;9.00;;;;;;;10.34;76.77;101947.28;5092945;28;20057;-75
2023/04/09 22:47:18;;;;;;;9.90;8.90;;;;;;;10.30;75.87;101954.94;5091800;28;20027;-79
2023/04/09 22:49:44;;;;;;;11.77;9.25;;;;;;;10.28;79.96;101952.41;5094498;28;20074;-78
2023/04/09 22:52:10;;;;;;;10.82;9.48;;;;;;;10.25;81.95;101946.53;5092758;28;20022;-74
2023/04/09 22:54:36;;;;;;;10.75;8.30;;;;;;;10.27;79.89;101956.16;5092782;28;20107;-75
2023/04/09 22:57:02;;;;;;;9.73;8.73;;;;;;;10.32;76.10;101949.31;5091084;28;20493;-77
2023/04/09 22:59:27;;;;;;;11.40;9.18;;;;;;;10.26;84.13;101950.94;5090580;28;20024;-76
2023/04/09 23:01:55;;;;;;;12.20;9.20;;;;;;;10.20;77.33;101949.00;5090168;28;20047;-76
2023/04/09 23:04:26;;;;;;;10.77;9.20;;;;;;;10.16;79.62;101942.31;5092843;28;20107;-75
2023/04/09 23:06:53;;;;;;;12.23;8.57;;;;;;;10.18;79.37;101941.09;5092488;28;20023;-75
2023/04/09 23:09:18;;;;;;;10.30;8.27;;;;;;;10.11;74.35;101934.78;5091542;28;20035;-76
2023/04/09 23:11:44;;;;;;;10.15;9.05;;;;;;;10.09;78.66;101936.84;5086036;28;20021;-75
2023/04/09 23:14:09;;;;;;;10.07;8.95;;;;;;;10.04;76.36;101945.56;5082134;28;20047;-77
2023/04/09 23:16:34;;;;;;;10.88;8.50;;;;;;;10.06;77.86;101939.97;5093724;28;20019;-75
2023/04/09 23:19:00;;;;;;;10.40;8.65;;;;;;;10.07;75.67;101947.88;5092962;28;20403;-76
2023/04/09 23:21:25;;;;;;;10.73;8.95;;;;;;;10.11;77.21;101941.06;5091826;28;20031;-76
2023/04/09 23:23:50;;;;;;;10.60;8.68;;;;;;;10.02;78.10;101946.78;5092123;28;20028;-75
2023/04/09 23:26:16;;;;;;;9.80;8.80;;;;;;;9.98;78.43;101945.47;5092983;28;20024;-76
2023/04/09 23:28:41;;;;;;;12.98;8.73;;;;;;;9.98;78.45;101940.94;5091763;28;20028;-75
2023/04/09 23:31:06;;;;;;;10.48;8.55;;;;;;;9.96;84.00;101942.16;5093188;28;20467;-78
2023/04/09 23:33:32;;;;;;;9.82;8.70;;;;;;;9.93;81.81;101937.97;5093657;28;20024;-76
2023/04/09 23:35:57;;;;;;;11.45;9.07;;;;;;;9.94;79.91;101945.03;5093169;28;20024;-76
2023/04/09 23:38:23;;;;;;;13.40;8.98;;;;;;;9.84;77.50;101929.13;5091144;28;20051;-77
2023/04/09 23:40:48;;;;;;;9.75;8.55;;;;;;;9.82;80.42;101930.38;5091487;28;20316;-77
2023/04/09 23:43:13;;;;;;;10.95;8.73;;;;;;;9.82;84.48;101930.38;5092478;28;20110;-77
2023/04/09 23:45:39;;;;;;;10.95;8.60;;;;;;;9.86;79.06;101929.78;5093159;28;20066;-73
2023/04/09 23:48:06;;;;;;;11.13;8.77;;;;;;;9.82;77.15;101928.50;5090461;28;20051;-78
2023/04/09 23:50:31;;;;;;;9.65;8.23;;;;;;;9.83;79.34;101922.06;5093353;28;20367;-77
2023/04/09 23:52:59;;;;;;;10.52;8.95;;;;;;;9.74;80.99;101929.47;5093060;28;20035;-77
2023/04/09 23:55:27;;;;;;;9.60;8.60;;;;;;;9.76;86.03;101932.81;5093057;28;20371;-77
2023/04/09 23:57:53;;;;;;;8.77;7.88;;;;;;;9.73;80.83;101926.97;5089799;28;20055;-79
